createdAt,value
2023-01-15T00:02:17.417Z,9.38
2023-01-15T00:04:51.893Z,9.10
2023-01-15T00:07:23.020Z,8.18
2023-01-15T00:09:51.881Z,9.45
2023-01-15T00:12:20.021Z,9.43
2023-01-15T00:14:48.226Z,8.15
2023-01-15T00:17:16.511Z,8.48
2023-01-15T00:19:44.699Z,12.45
2023-01-15T00:22:14.218Z,8.65
2023-01-15T00:24:59.757Z,6.85
2023-01-15T00:27:41.372Z,8.13
2023-01-15T00:30:13.021Z,9.15
2023-01-15T00:32:41.564Z,7.75
2023-01-15T00:35:14.143Z,10.38
2023-01-15T00:37:44.654Z,11.80
2023-01-15T00:40:13.891Z,8.63
2023-01-15T00:42:42.172Z,9.07
2023-01-15T00:45:13.482Z,10.88
2023-01-15T00:47:43.701Z,8.07
2023-01-15T00:50:14.567Z,8.68
2023-01-15T00:52:46.679Z,8.20
2023-01-15T00:55:14.930Z,9.60
2023-01-15T00:57:43.194Z,9.55
2023-01-15T01:00:13.310Z,9.60
2023-01-15T01:02:41.596Z,5.97
2023-01-15T01:05:10.576Z,7.50
2023-01-15T01:07:38.877Z,10.20
2023-01-15T01:10:09.531Z,7.38
2023-01-15T01:12:38.549Z,7.45
2023-01-15T01:15:09.830Z,11.20
2023-01-15T01:17:40.496Z,7.45
2023-01-15T01:20:10.312Z,10.30
2023-01-15T01:22:38.476Z,9.10
2023-01-15T01:25:09.741Z,9.38
2023-01-15T01:27:40.131Z,10.93
2023-01-15T01:30:09.630Z,6.82
2023-01-15T01:32:37.822Z,8.27
2023-01-15T01:35:06.860Z,8.23
2023-01-15T01:37:35.968Z,9.32
2023-01-15T01:40:05.150Z,9.20
2023-01-15T01:42:34.710Z,6.95
2023-01-15T01:45:08.052Z,5.65
2023-01-15T01:47:36.460Z,8.10
2023-01-15T01:50:10.390Z,9.63
2023-01-15T01:52:43.278Z,7.60
2023-01-15T01:55:13.330Z,6.07
2023-01-15T01:57:44.005Z,6.97
2023-01-15T02:00:15.269Z,6.90
2023-01-15T02:02:47.724Z,6.75
2023-01-15T02:05:20.686Z,6.47
2023-01-15T02:07:49.051Z,6.93
2023-01-15T02:10:18.461Z,8.10
2023-01-15T02:12:56.521Z,9.23
2023-01-15T02:15:31.981Z,6.93
2023-01-15T02:18:07.121Z,5.07
2023-01-15T02:20:40.923Z,7.25
2023-01-15T02:23:27.366Z,7.22
2023-01-15T02:26:28.237Z,7.80
2023-01-15T02:29:00.093Z,9.88
2023-01-15T02:31:35.267Z,5.90
2023-01-15T02:34:11.220Z,5.80
2023-01-15T02:36:44.383Z,7.05
2023-01-15T02:39:22.554Z,7.53
2023-01-15T02:41:53.109Z,5.75
2023-01-15T02:44:24.794Z,5.70
2023-01-15T02:46:58.703Z,5.07
2023-01-15T02:49:28.773Z,6.15
2023-01-15T02:52:05.000Z,7.57
2023-01-15T02:54:44.768Z,5.55
2023-01-15T02:57:17.245Z,5.45
2023-01-15T02:59:52.679Z,7.80
2023-01-15T03:02:24.477Z,7.70
2023-01-15T03:04:57.022Z,6.90
2023-01-15T03:07:32.343Z,6.68
2023-01-15T03:10:00.821Z,6.68
2023-01-15T03:12:57.623Z,5.63
2023-01-15T03:15:50.315Z,5.78
2023-01-15T03:18:23.477Z,6.80
2023-01-15T03:20:58.838Z,5.93
2023-01-15T03:23:30.861Z,6.70
2023-01-15T03:25:59.590Z,4.65
2023-01-15T03:28:32.928Z,5.38
2023-01-15T03:31:02.716Z,5.53
2023-01-15T03:33:31.459Z,5.97
2023-01-15T03:36:02.104Z,5.68
2023-01-15T03:38:51.432Z,7.45
2023-01-15T03:41:41.924Z,7.07
2023-01-15T03:44:20.303Z,7.72
2023-01-15T03:47:10.266Z,6.40
2023-01-15T03:49:52.897Z,7.85
2023-01-15T03:52:43.535Z,6.28
2023-01-15T03:55:19.548Z,7.95
2023-01-15T03:58:03.651Z,5.43
2023-01-15T04:00:39.561Z,6.18
2023-01-15T04:03:11.762Z,5.25
2023-01-15T04:05:41.429Z,4.95
2023-01-15T04:08:10.332Z,7.40
2023-01-15T04:10:38.520Z,5.30
2023-01-15T04:13:10.872Z,4.97
2023-01-15T04:15:41.551Z,5.53
2023-01-15T04:18:11.124Z,8.38
2023-01-15T04:20:43.294Z,7.70
2023-01-15T04:23:12.011Z,6.80
2023-01-15T04:25:40.977Z,7.07
2023-01-15T04:28:10.407Z,5.63
2023-01-15T04:30:38.593Z,5.13
2023-01-15T04:33:06.837Z,7.00
2023-01-15T04:35:36.859Z,4.38
2023-01-15T04:38:05.033Z,5.47
2023-01-15T04:40:50.678Z,6.82
2023-01-15T04:43:36.628Z,6.40
2023-01-15T04:46:04.893Z,5.05
2023-01-15T04:48:33.060Z,8.80
2023-01-15T04:51:05.583Z,4.80
2023-01-15T04:53:34.704Z,4.88
2023-01-15T04:56:03.110Z,4.57
2023-01-15T04:58:31.849Z,5.55
2023-01-15T05:01:00.994Z,5.43
2023-01-15T05:03:29.475Z,4.40
2023-01-15T05:06:01.828Z,4.93
2023-01-15T05:08:31.638Z,5.25
2023-01-15T05:11:04.052Z,3.88
2023-01-15T05:13:33.488Z,2.95
2023-01-15T05:16:13.602Z,4.65
2023-01-15T05:18:42.803Z,4.53
2023-01-15T05:21:16.187Z,4.88
2023-01-15T05:23:46.154Z,5.32
2023-01-15T05:26:14.818Z,3.85
2023-01-15T05:28:46.197Z,5.15
2023-01-15T05:31:16.073Z,4.57
2023-01-15T05:33:44.706Z,3.55
2023-01-15T05:36:17.636Z,4.93
2023-01-15T05:38:47.518Z,4.32
2023-01-15T05:41:31.016Z,2.65
2023-01-15T05:44:02.695Z,3.40
2023-01-15T05:46:30.995Z,4.70
2023-01-15T05:49:02.254Z,4.35
2023-01-15T05:51:30.849Z,3.90
2023-01-15T05:54:03.985Z,5.35
2023-01-15T05:56:32.208Z,4.25
2023-01-15T05:59:00.340Z,3.03
2023-01-15T06:01:31.596Z,3.92
2023-01-15T06:04:00.288Z,3.63
2023-01-15T06:06:29.422Z,4.00
2023-01-15T06:08:57.723Z,4.38
2023-01-15T06:11:29.891Z,4.85
2023-01-15T06:13:58.089Z,5.05
2023-01-15T06:16:26.589Z,3.60
2023-01-15T06:18:54.977Z,3.33
2023-01-15T06:21:23.128Z,4.10
2023-01-15T06:23:53.882Z,3.08
2023-01-15T06:26:22.124Z,3.28
2023-01-15T06:28:52.383Z,3.95
2023-01-15T06:31:23.218Z,4.20
2023-01-15T06:33:51.491Z,3.05
2023-01-15T06:36:24.307Z,2.83
2023-01-15T06:38:52.552Z,3.50
2023-01-15T06:41:40.713Z,2.50
2023-01-15T06:44:30.596Z,2.40
2023-01-15T06:47:16.082Z,4.10
2023-01-15T06:49:44.367Z,2.60
2023-01-15T06:52:12.583Z,3.85
2023-01-15T06:54:40.769Z,3.00
2023-01-15T06:57:09.076Z,3.40
2023-01-15T06:59:38.629Z,4.22
2023-01-15T07:02:06.860Z,3.00
2023-01-15T07:04:35.077Z,3.20
2023-01-15T07:07:03.230Z,3.42
2023-01-15T07:09:31.609Z,3.35
2023-01-15T07:11:59.937Z,2.65
2023-01-15T07:14:28.680Z,2.55
2023-01-15T07:16:59.309Z,5.68
2023-01-15T07:19:27.800Z,3.10
2023-01-15T07:21:56.122Z,3.60
2023-01-15T07:24:24.328Z,3.10
2023-01-15T07:26:52.494Z,3.45
2023-01-15T07:29:20.762Z,4.40
2023-01-15T07:31:48.920Z,2.78
2023-01-15T07:34:18.500Z,2.45
2023-01-15T07:36:46.665Z,4.22
2023-01-15T07:39:15.036Z,2.55
2023-01-15T07:42:00.944Z,3.15
2023-01-15T07:44:46.759Z,2.50
2023-01-15T07:47:37.229Z,2.95
2023-01-15T07:50:09.470Z,2.55
2023-01-15T07:52:40.707Z,3.90
2023-01-15T07:55:10.269Z,2.45
2023-01-15T07:57:39.523Z,2.75
2023-01-15T08:00:09.187Z,4.75
2023-01-15T08:02:40.200Z,3.00
2023-01-15T08:05:12.456Z,3.10
2023-01-15T08:07:41.753Z,4.40
2023-01-15T08:10:13.759Z,3.13
2023-01-15T08:12:59.897Z,2.90
2023-01-15T08:15:29.217Z,2.80
2023-01-15T08:17:57.381Z,4.32
2023-01-15T08:20:27.768Z,4.00
2023-01-15T08:22:55.997Z,2.92
2023-01-15T08:25:25.660Z,4.00
2023-01-15T08:27:54.847Z,3.35
2023-01-15T08:30:25.213Z,3.30
2023-01-15T08:32:53.651Z,2.92
2023-01-15T08:35:22.004Z,6.40
2023-01-15T08:37:51.566Z,3.15
2023-01-15T08:40:19.882Z,3.33
2023-01-15T08:42:48.032Z,3.55
2023-01-15T08:45:16.456Z,2.35
2023-01-15T08:47:45.835Z,2.67
2023-01-15T08:50:14.021Z,3.70
2023-01-15T08:52:42.307Z,4.72
2023-01-15T08:55:14.879Z,2.97
2023-01-15T08:57:44.670Z,3.75
2023-01-15T09:00:14.431Z,2.85
2023-01-15T09:02:43.269Z,2.88
2023-01-15T09:05:11.471Z,2.97
2023-01-15T09:07:39.723Z,3.17
2023-01-15T09:10:11.392Z,4.00
2023-01-15T09:12:40.995Z,3.85
2023-01-15T09:15:10.229Z,5.63
2023-01-15T09:17:40.735Z,2.53
2023-01-15T09:20:11.111Z,4.03
2023-01-15T09:22:39.467Z,3.13
2023-01-15T09:25:08.686Z,3.90
2023-01-15T09:27:37.921Z,3.40
2023-01-15T09:30:09.081Z,3.38
2023-01-15T09:32:38.047Z,3.25
2023-01-15T09:35:06.732Z,3.15
2023-01-15T09:37:34.925Z,2.97
2023-01-15T09:40:04.269Z,2.80
2023-01-15T09:42:44.876Z,3.17
2023-01-15T09:45:23.439Z,3.80
2023-01-15T09:48:10.447Z,5.45
2023-01-15T09:50:49.820Z,3.17
2023-01-15T09:53:40.450Z,4.35
2023-01-15T09:56:17.657Z,3.35
2023-01-15T09:58:45.984Z,5.07
2023-01-15T10:01:19.429Z,3.30
2023-01-15T10:03:52.424Z,3.30
2023-01-15T10:06:25.368Z,4.00
2023-01-15T10:09:01.440Z,2.83
2023-01-15T10:11:56.613Z,3.80
2023-01-15T10:14:40.636Z,3.17
2023-01-15T10:17:26.053Z,4.65
2023-01-15T10:19:54.894Z,4.93
2023-01-15T10:22:43.008Z,3.70
2023-01-15T10:25:17.148Z,3.55
2023-01-15T10:27:52.089Z,4.85
2023-01-15T10:30:33.602Z,3.78
2023-01-15T10:33:13.567Z,3.50
2023-01-15T10:35:48.948Z,3.75
2023-01-15T10:38:24.657Z,3.50
2023-01-15T10:41:11.469Z,3.92
2023-01-15T10:43:49.052Z,3.13
2023-01-15T10:46:19.317Z,3.58
2023-01-15T10:48:52.284Z,4.95
2023-01-15T10:51:23.865Z,4.55
2023-01-15T10:53:55.731Z,2.75
2023-01-15T10:56:35.069Z,4.63
2023-01-15T10:59:16.504Z,2.88
2023-01-15T11:01:45.240Z,4.35
2023-01-15T11:04:14.859Z,3.60
2023-01-15T11:06:45.381Z,3.08
2023-01-15T11:09:22.383Z,3.80
2023-01-15T11:12:10.078Z,5.70
2023-01-15T11:14:57.817Z,3.75
2023-01-15T11:17:46.919Z,4.28
2023-01-15T11:20:28.502Z,5.18
2023-01-15T11:22:57.401Z,3.53
2023-01-15T11:25:31.471Z,4.85
2023-01-15T11:28:01.321Z,5.70
2023-01-15T11:30:32.862Z,3.90
2023-01-15T11:33:04.144Z,5.90
2023-01-15T11:35:35.228Z,8.35
2023-01-15T11:38:05.341Z,5.10
2023-01-15T11:40:34.015Z,4.57
2023-01-15T11:43:20.022Z,4.38
2023-01-15T11:46:07.106Z,5.80
2023-01-15T11:49:03.275Z,4.35
2023-01-15T11:51:41.492Z,4.30
2023-01-15T11:54:13.443Z,5.50
2023-01-15T11:56:45.212Z,4.75
2023-01-15T11:59:15.885Z,4.28
2023-01-15T12:01:54.761Z,5.50
2023-01-15T12:04:37.455Z,5.78
2023-01-15T12:07:12.932Z,3.60
2023-01-15T12:10:00.125Z,3.80
2023-01-15T12:12:40.943Z,3.87
2023-01-15T12:15:30.399Z,6.20
2023-01-15T12:18:20.187Z,5.50
2023-01-15T12:20:59.630Z,3.85
2023-01-15T12:24:02.873Z,4.97
2023-01-15T12:26:34.029Z,4.95
2023-01-15T12:29:07.459Z,3.97
2023-01-15T12:31:39.759Z,3.55
2023-01-15T12:34:19.156Z,4.28
2023-01-15T12:36:53.409Z,3.88
2023-01-15T12:39:26.878Z,4.35
2023-01-15T12:42:17.716Z,5.20
2023-01-15T12:45:04.802Z,5.13
2023-01-15T12:47:40.140Z,3.63
2023-01-15T12:50:29.740Z,4.30
2023-01-15T12:53:04.848Z,4.55
2023-01-15T12:55:38.778Z,6.85
2023-01-15T12:58:14.478Z,3.20
2023-01-15T13:00:46.791Z,4.70
2023-01-15T13:03:25.095Z,3.15
2023-01-15T13:05:57.204Z,4.80
2023-01-15T13:08:31.401Z,4.22
2023-01-15T13:11:03.171Z,5.15
2023-01-15T13:13:34.278Z,6.47
2023-01-15T13:16:11.096Z,3.87
2023-01-15T13:18:52.221Z,4.38
2023-01-15T13:21:25.873Z,4.77
2023-01-15T13:24:08.962Z,3.83
2023-01-15T13:26:54.942Z,4.03
2023-01-15T13:29:39.285Z,3.77
2023-01-15T13:32:14.164Z,3.90
2023-01-15T13:34:47.296Z,4.50
2023-01-15T13:37:25.235Z,4.07
2023-01-15T13:39:56.923Z,6.87
2023-01-15T13:42:35.649Z,4.57
2023-01-15T13:45:26.597Z,3.97
2023-01-15T13:47:58.833Z,5.60
2023-01-15T13:50:31.446Z,4.00
2023-01-15T13:53:07.028Z,4.93
2023-01-15T13:55:37.708Z,4.63
2023-01-15T13:58:23.334Z,3.50
2023-01-15T14:01:08.940Z,6.50
2023-01-15T14:03:38.937Z,4.60
2023-01-15T14:06:09.733Z,4.10
2023-01-15T14:08:41.850Z,4.83
2023-01-15T14:11:35.682Z,5.93
2023-01-15T14:14:40.976Z,7.40
2023-01-15T14:17:25.837Z,3.50
2023-01-15T14:20:30.271Z,5.10
2023-01-15T14:23:07.788Z,3.70
2023-01-15T14:25:54.351Z,5.33
2023-01-15T14:28:40.294Z,4.80
2023-01-15T14:31:42.383Z,4.23
2023-01-15T14:34:17.407Z,3.63
2023-01-15T14:36:53.577Z,3.00
2023-01-15T14:39:36.720Z,3.97
2023-01-15T14:42:30.119Z,4.63
2023-01-15T14:45:01.075Z,4.97
2023-01-15T14:47:34.989Z,4.50
2023-01-15T14:50:33.813Z,4.80
2023-01-15T14:53:18.538Z,6.67
2023-01-15T14:55:50.631Z,3.73
2023-01-15T14:58:38.594Z,3.63
2023-01-15T15:01:31.678Z,5.73
2023-01-15T15:04:06.868Z,4.33
2023-01-15T15:06:45.908Z,4.00
2023-01-15T15:09:15.536Z,3.63
2023-01-15T15:12:06.121Z,4.00
2023-01-15T15:14:39.611Z,3.33
2023-01-15T15:17:20.084Z,4.10
2023-01-15T15:19:55.010Z,3.37
2023-01-15T15:22:30.721Z,3.73
2023-01-15T15:25:02.633Z,3.93
2023-01-15T15:27:30.882Z,4.80
2023-01-15T15:30:06.624Z,4.10
2023-01-15T15:32:40.079Z,4.73
2023-01-15T15:35:25.846Z,4.80
2023-01-15T15:38:01.402Z,3.33
2023-01-15T15:40:35.590Z,3.50
2023-01-15T15:43:30.295Z,4.03
2023-01-15T15:46:24.740Z,4.57
2023-01-15T15:48:58.954Z,4.93
2023-01-15T15:51:31.417Z,4.63
2023-01-15T15:54:15.515Z,5.17
2023-01-15T15:56:49.844Z,4.10
2023-01-15T15:59:29.827Z,4.50
2023-01-15T16:02:00.978Z,4.47
2023-01-15T16:04:29.933Z,4.50
2023-01-15T16:06:58.116Z,4.90
2023-01-15T16:09:27.724Z,4.17
2023-01-15T16:12:07.278Z,7.40
2023-01-15T16:14:38.483Z,4.30
2023-01-15T16:17:06.958Z,4.30
2023-01-15T16:19:35.249Z,5.03
2023-01-15T16:22:03.808Z,4.83
2023-01-15T16:24:33.391Z,7.53
2023-01-15T16:27:06.661Z,4.10
2023-01-15T16:29:36.737Z,4.13
2023-01-15T16:32:11.878Z,3.10
2023-01-15T16:34:40.921Z,5.07
2023-01-15T16:37:24.501Z,4.23
2023-01-15T16:39:54.795Z,4.30
2023-01-15T16:42:28.721Z,5.77
2023-01-15T16:45:01.165Z,8.43
2023-01-15T16:47:32.656Z,5.80
2023-01-15T16:50:29.075Z,4.00
2023-01-15T16:53:03.257Z,5.30
2023-01-15T16:55:41.676Z,6.50
2023-01-15T16:58:21.797Z,5.90
2023-01-15T17:00:53.021Z,8.27
2023-01-15T17:03:32.704Z,5.97
2023-01-15T17:06:05.388Z,6.13
2023-01-15T17:08:38.922Z,5.50
2023-01-15T17:11:18.768Z,5.30
2023-01-15T17:13:47.061Z,4.63
2023-01-15T17:16:19.950Z,4.30
2023-01-15T17:18:50.048Z,3.93
2023-01-15T17:21:21.605Z,5.80
2023-01-15T17:23:50.514Z,4.03
2023-01-15T17:26:22.761Z,5.90
2023-01-15T17:28:51.378Z,5.93
2023-01-15T17:31:28.494Z,5.30
2023-01-15T17:33:57.743Z,6.30
2023-01-15T17:36:27.840Z,8.13
2023-01-15T17:38:56.636Z,4.37
2023-01-15T17:41:26.251Z,4.87
2023-01-15T17:43:54.450Z,6.03
2023-01-15T17:46:22.665Z,3.57
2023-01-15T17:48:50.907Z,5.20
2023-01-15T17:51:19.139Z,9.43
2023-01-15T17:53:47.330Z,5.53
2023-01-15T17:56:33.167Z,6.83
2023-01-15T17:59:20.131Z,6.00
2023-01-15T18:02:06.832Z,6.50
2023-01-15T18:04:55.781Z,5.20
2023-01-15T18:07:27.284Z,5.23
2023-01-15T18:10:00.384Z,6.80
2023-01-15T18:12:28.796Z,7.27
2023-01-15T18:14:58.335Z,5.13
2023-01-15T18:17:26.582Z,6.50
2023-01-15T18:19:55.871Z,5.70
2023-01-15T18:22:26.585Z,6.10
2023-01-15T18:24:54.722Z,7.33
2023-01-15T18:27:22.988Z,5.93
2023-01-15T18:29:51.218Z,7.63
2023-01-15T18:32:20.786Z,6.60
2023-01-15T18:34:48.985Z,9.17
2023-01-15T18:37:17.180Z,7.37
2023-01-15T18:39:45.473Z,7.00
2023-01-15T18:42:31.359Z,7.83
2023-01-15T18:45:17.225Z,4.90
2023-01-15T18:47:46.781Z,4.13
2023-01-15T18:50:15.433Z,4.10
2023-01-15T18:52:52.481Z,5.40
2023-01-15T18:55:22.255Z,2.80
2023-01-15T18:57:50.538Z,3.83
2023-01-15T19:00:19.541Z,2.80
2023-01-15T19:02:59.278Z,3.07
2023-01-15T19:05:29.811Z,3.83
2023-01-15T19:07:59.233Z,2.70
2023-01-15T19:10:27.542Z,5.50
2023-01-15T19:12:55.705Z,3.00
2023-01-15T19:15:41.347Z,4.30
2023-01-15T19:18:30.204Z,3.00
2023-01-15T19:20:58.413Z,4.33
2023-01-15T19:23:26.764Z,4.73
2023-01-15T19:25:54.925Z,3.23
2023-01-15T19:28:23.164Z,3.60
2023-01-15T19:31:05.634Z,3.80
2023-01-15T19:33:35.496Z,2.60
2023-01-15T19:36:04.537Z,3.40
2023-01-15T19:38:34.250Z,2.70
2023-01-15T19:41:16.406Z,4.07
2023-01-15T19:44:02.071Z,3.47
2023-01-15T19:46:47.876Z,5.75
2023-01-15T19:49:38.988Z,3.33
2023-01-15T19:52:24.645Z,4.30
2023-01-15T19:54:59.942Z,2.90
2023-01-15T19:57:28.155Z,3.93
2023-01-15T19:59:58.983Z,3.67
2023-01-15T20:02:27.577Z,4.60
2023-01-15T20:04:57.214Z,5.10
2023-01-15T20:07:25.506Z,3.10
2023-01-15T20:09:53.733Z,3.50
2023-01-15T20:12:39.118Z,3.60
2023-01-15T20:15:09.416Z,2.65
2023-01-15T20:17:37.676Z,2.05
2023-01-15T20:20:09.244Z,2.58
2023-01-15T20:22:39.764Z,3.63
2023-01-15T20:25:09.163Z,3.60
2023-01-15T20:27:39.803Z,2.40
2023-01-15T20:30:11.467Z,4.15
2023-01-15T20:32:42.044Z,3.03
2023-01-15T20:35:13.872Z,2.80
2023-01-15T20:37:42.155Z,2.47
2023-01-15T20:40:11.988Z,2.45
2023-01-15T20:42:57.343Z,4.38
2023-01-15T20:45:26.100Z,3.65
2023-01-15T20:48:11.786Z,2.58
2023-01-15T20:50:43.515Z,2.63
2023-01-15T20:53:13.981Z,3.78
2023-01-15T20:55:56.875Z,5.40
2023-01-15T20:58:26.227Z,4.78
2023-01-15T21:00:56.485Z,5.30
2023-01-15T21:03:24.860Z,5.55
2023-01-15T21:05:58.101Z,7.65
2023-01-15T21:08:26.282Z,5.30
2023-01-15T21:10:57.443Z,4.28
2023-01-15T21:13:25.727Z,4.70
2023-01-15T21:15:58.952Z,3.55
2023-01-15T21:18:28.392Z,6.40
2023-01-15T21:20:58.083Z,5.50
2023-01-15T21:23:29.221Z,5.55
2023-01-15T21:26:01.529Z,5.60
2023-01-15T21:28:30.323Z,5.30
2023-01-15T21:31:00.201Z,4.32
2023-01-15T21:33:31.125Z,4.30
2023-01-15T21:36:00.729Z,4.97
2023-01-15T21:38:28.909Z,7.75
2023-01-15T21:40:57.109Z,6.07
2023-01-15T21:43:42.657Z,5.93
2023-01-15T21:46:11.074Z,6.75
2023-01-15T21:48:39.294Z,4.65
2023-01-15T21:51:09.132Z,5.32
2023-01-15T21:53:37.363Z,3.63
2023-01-15T21:56:07.178Z,4.18
2023-01-15T21:58:37.611Z,4.15
2023-01-15T22:01:10.175Z,4.70
2023-01-15T22:03:41.208Z,4.15
2023-01-15T22:06:11.786Z,4.40
2023-01-15T22:08:40.078Z,3.53
2023-01-15T22:11:10.747Z,4.32
2023-01-15T22:13:40.891Z,4.00
2023-01-15T22:16:09.587Z,3.63
2023-01-15T22:18:37.799Z,4.50
2023-01-15T22:21:07.748Z,4.03
2023-01-15T22:23:37.346Z,4.20
2023-01-15T22:26:05.780Z,3.67
2023-01-15T22:28:33.996Z,6.93
2023-01-15T22:31:06.538Z,3.20
2023-01-15T22:33:37.145Z,4.80
2023-01-15T22:36:06.917Z,3.42
2023-01-15T22:38:36.485Z,3.77
2023-01-15T22:41:04.786Z,4.97
2023-01-15T22:43:33.355Z,3.88
2023-01-15T22:46:10.227Z,4.35
2023-01-15T22:48:40.848Z,5.47
2023-01-15T22:51:09.058Z,5.03
2023-01-15T22:53:38.674Z,4.35
2023-01-15T22:56:09.370Z,5.25
2023-01-15T22:58:42.588Z,3.58
2023-01-15T23:01:10.980Z,3.97
2023-01-15T23:03:39.782Z,4.10
2023-01-15T23:06:10.971Z,3.13
2023-01-15T23:08:41.608Z,3.63
2023-01-15T23:11:11.019Z,3.80
2023-01-15T23:13:39.953Z,5.25
2023-01-15T23:16:08.190Z,3.90
2023-01-15T23:18:37.170Z,5.57
2023-01-15T23:21:06.302Z,3.97
2023-01-15T23:23:37.218Z,3.67
2023-01-15T23:26:08.730Z,3.65
2023-01-15T23:28:36.938Z,4.90
2023-01-15T23:31:05.291Z,4.05
2023-01-15T23:33:33.895Z,3.42
2023-01-15T23:36:02.377Z,4.00
2023-01-15T23:38:30.650Z,4.05
2023-01-15T23:40:58.880Z,4.93
2023-01-15T23:43:45.934Z,3.08
2023-01-15T23:46:34.940Z,2.93
2023-01-15T23:49:05.753Z,3.05
2023-01-15T23:51:34.605Z,2.70
2023-01-15T23:54:03.773Z,3.53
2023-01-15T23:56:33.023Z,3.63
2023-01-15T23:59:02.601Z,4.70
